createdAt,value
2023-06-05T00:00:24.158Z,1015.40
2023-06-05T00:01:24.130Z,1015.41
2023-06-05T00:02:24.132Z,1015.44
2023-06-05T00:03:24.195Z,1015.39
2023-06-05T00:04:24.090Z,1015.40
2023-06-05T00:05:23.958Z,1015.39
2023-06-05T00:06:23.919Z,1015.41
2023-06-05T00:07:23.897Z,1015.43
2023-06-05T00:08:23.839Z,1015.44
2023-06-05T00:09:23.806Z,1015.44
2023-06-05T00:10:23.768Z,1015.38
2023-06-05T00:11:23.725Z,1015.42
2023-06-05T00:12:23.681Z,1015.41
2023-06-05T00:13:23.674Z,1015.45
2023-06-05T00:14:23.610Z,1015.43
2023-06-05T00:15:23.596Z,1015.44
2023-06-05T00:16:23.569Z,1015.40
2023-06-05T00:17:23.508Z,1015.46
2023-06-05T00:18:23.449Z,1015.44
2023-06-05T00:19:23.429Z,1015.42
2023-06-05T00:20:23.385Z,1015.52
2023-06-05T00:21:23.337Z,1015.47
2023-06-05T00:22:23.301Z,1015.42
2023-06-05T00:23:23.298Z,1015.44
2023-06-05T00:24:23.221Z,1015.46
2023-06-05T00:25:23.222Z,1015.46
2023-06-05T00:26:23.140Z,1015.41
2023-06-05T00:27:23.102Z,1015.44
2023-06-05T00:28:23.067Z,1015.47
2023-06-05T00:29:23.113Z,1015.51
2023-06-05T00:30:23.000Z,1015.48
2023-06-05T00:31:23.124Z,1015.46
2023-06-05T00:32:22.933Z,1015.45
2023-06-05T00:33:22.917Z,1015.47
2023-06-05T00:34:22.844Z,1015.43
2023-06-05T00:35:22.802Z,1015.44
2023-06-05T00:36:22.784Z,1015.44
2023-06-05T00:37:22.728Z,1015.48
2023-06-05T00:38:22.690Z,1015.45
2023-06-05T00:39:22.646Z,1015.45
2023-06-05T00:40:22.607Z,1015.46
2023-06-05T00:41:22.568Z,1015.42
2023-06-05T00:42:22.541Z,1015.48
2023-06-05T00:43:22.495Z,1015.48
2023-06-05T00:44:22.448Z,1015.51
2023-06-05T00:45:22.423Z,1015.48
2023-06-05T00:46:22.413Z,1015.47
2023-06-05T00:47:22.367Z,1015.48
2023-06-05T00:48:22.296Z,1015.48
2023-06-05T00:49:22.268Z,1015.47
2023-06-05T00:50:22.221Z,1015.49
2023-06-05T00:51:22.196Z,1015.48
2023-06-05T00:52:22.165Z,1015.45
2023-06-05T00:53:22.116Z,1015.43
2023-06-05T00:54:22.111Z,1015.42
2023-06-05T00:55:22.039Z,1015.40
2023-06-05T00:56:22.142Z,1015.40
2023-06-05T00:57:21.963Z,1015.40
2023-06-05T00:58:21.910Z,1015.48
2023-06-05T00:59:21.887Z,1015.47
2023-06-05T01:00:21.872Z,1015.40
2023-06-05T01:01:21.877Z,1015.43
2023-06-05T01:02:21.774Z,1015.41
2023-06-05T01:03:21.821Z,1015.46
2023-06-05T01:04:21.681Z,1015.41
2023-06-05T01:05:21.669Z,1015.45
2023-06-05T01:06:21.597Z,1015.45
2023-06-05T01:07:21.580Z,1015.45
2023-06-05T01:08:21.521Z,1015.46
2023-06-05T01:09:21.495Z,1015.46
2023-06-05T01:10:21.461Z,1015.41
2023-06-05T01:11:21.465Z,1015.45
2023-06-05T01:12:21.471Z,1015.38
2023-06-05T01:13:21.351Z,1015.43
2023-06-05T01:14:21.295Z,1015.39
2023-06-05T01:15:21.256Z,1015.40
2023-06-05T01:16:21.234Z,1015.42
2023-06-05T01:17:21.242Z,1015.39
2023-06-05T01:18:21.170Z,1015.38
2023-06-05T01:19:21.103Z,1015.37
2023-06-05T01:20:21.072Z,1015.38
2023-06-05T01:21:21.021Z,1015.35
2023-06-05T01:22:21.000Z,1015.40
2023-06-05T01:23:20.997Z,1015.36
2023-06-05T01:24:20.916Z,1015.41
2023-06-05T01:25:20.871Z,1015.34
2023-06-05T01:26:20.829Z,1015.36
2023-06-05T01:27:20.786Z,1015.34
2023-06-05T01:28:20.769Z,1015.34
2023-06-05T01:29:20.730Z,1015.34
2023-06-05T01:30:20.678Z,1015.34
2023-06-05T01:31:20.652Z,1015.34
2023-06-05T01:32:20.591Z,1015.31
2023-06-05T01:33:20.561Z,1015.36
2023-06-05T01:34:20.514Z,1015.34
2023-06-05T01:35:20.518Z,1015.34
2023-06-05T01:36:20.434Z,1015.32
2023-06-05T01:37:20.595Z,1015.33
2023-06-05T01:38:20.368Z,1015.32
2023-06-05T01:39:20.332Z,1015.34
2023-06-05T01:40:20.322Z,1015.33
2023-06-05T01:41:20.250Z,1015.33
2023-06-05T01:42:20.201Z,1015.34
2023-06-05T01:43:20.176Z,1015.33
2023-06-05T01:44:20.121Z,1015.30
2023-06-05T01:45:20.096Z,1015.30
2023-06-05T01:46:20.086Z,1015.33
2023-06-05T01:47:20.013Z,1015.29
2023-06-05T01:48:19.973Z,1015.29
2023-06-05T01:49:19.934Z,1015.25
2023-06-05T01:50:39.329Z,1015.28
2023-06-05T01:51:38.929Z,1015.26
2023-06-05T01:52:37.936Z,1015.23
2023-06-05T01:53:41.914Z,1015.22
2023-06-05T01:54:38.468Z,1015.20
2023-06-05T01:55:19.726Z,1015.20
2023-06-05T01:56:30.525Z,1015.19
2023-06-05T01:57:29.048Z,1015.19
2023-06-05T01:58:19.623Z,1015.22
2023-06-05T01:59:19.532Z,1015.20
2023-06-05T02:00:28.580Z,1015.19
2023-06-05T02:01:29.674Z,1015.17
2023-06-05T02:02:37.243Z,1015.17
2023-06-05T02:03:19.486Z,1015.15
2023-06-05T02:04:19.360Z,1015.14
2023-06-05T02:05:19.313Z,1015.16
2023-06-05T02:06:19.260Z,1015.14
2023-06-05T02:07:19.246Z,1015.19
2023-06-05T02:08:19.180Z,1015.16
2023-06-05T02:09:19.197Z,1015.17
2023-06-05T02:10:19.100Z,1015.15
2023-06-05T02:11:19.084Z,1015.18
2023-06-05T02:12:19.020Z,1015.21
2023-06-05T02:13:18.979Z,1015.21
2023-06-05T02:14:18.937Z,1015.16
2023-06-05T02:15:18.916Z,1015.19
2023-06-05T02:16:18.937Z,1015.17
2023-06-05T02:17:18.852Z,1015.14
2023-06-05T02:18:39.695Z,1015.17
2023-06-05T02:20:45.727Z,1015.13
2023-06-05T02:21:13.228Z,1015.13
2023-06-05T02:21:46.172Z,1015.10
2023-06-05T02:22:46.212Z,1015.09
2023-06-05T02:23:46.115Z,1015.11
2023-06-05T02:24:46.030Z,1015.07
2023-06-05T02:25:46.009Z,1015.08
2023-06-05T02:26:45.966Z,1015.08
2023-06-05T02:27:45.939Z,1015.07
2023-06-05T02:28:45.870Z,1015.04
2023-06-05T02:29:45.836Z,1015.04
2023-06-05T02:30:45.807Z,1015.10
2023-06-05T02:31:45.797Z,1015.01
2023-06-05T02:32:45.809Z,1015.00
2023-06-05T02:33:45.691Z,1015.05
2023-06-05T02:34:45.634Z,1015.01
2023-06-05T02:35:45.600Z,1015.01
2023-06-05T02:36:45.556Z,1015.00
2023-06-05T02:37:45.555Z,1015.02
2023-06-05T02:38:45.483Z,1015.00
2023-06-05T02:39:45.463Z,1015.01
2023-06-05T02:40:45.399Z,1014.98
2023-06-05T02:41:45.360Z,1014.95
2023-06-05T02:42:45.323Z,1015.06
2023-06-05T02:43:45.282Z,1014.99
2023-06-05T02:44:45.240Z,1014.99
2023-06-05T02:45:45.261Z,1014.94
2023-06-05T02:46:45.162Z,1014.97
2023-06-05T02:47:45.153Z,1014.96
2023-06-05T02:48:45.103Z,1014.97
2023-06-05T02:49:45.045Z,1014.94
2023-06-05T02:50:45.000Z,1014.93
2023-06-05T02:51:44.991Z,1014.92
2023-06-05T02:52:44.930Z,1014.95
2023-06-05T02:53:44.887Z,1014.90
2023-06-05T02:54:44.852Z,1014.91
2023-06-05T02:55:44.817Z,1014.94
2023-06-05T02:56:44.762Z,1014.94
2023-06-05T02:57:44.753Z,1014.90
2023-06-05T02:58:44.697Z,1014.90
2023-06-05T02:59:44.673Z,1014.93
2023-06-05T03:00:44.605Z,1014.89
2023-06-05T03:01:44.653Z,1014.91
2023-06-05T03:02:44.604Z,1014.86
2023-06-05T03:03:44.562Z,1014.91
2023-06-05T03:04:44.460Z,1014.91
2023-06-05T03:05:44.421Z,1014.87
2023-06-05T03:06:44.386Z,1014.93
2023-06-05T03:07:44.337Z,1014.91
2023-06-05T03:08:44.288Z,1014.90
2023-06-05T03:09:44.271Z,1014.88
2023-06-05T03:10:44.247Z,1014.89
2023-06-05T03:11:44.189Z,1014.89
2023-06-05T03:12:44.138Z,1014.85
2023-06-05T03:13:44.092Z,1014.86
2023-06-05T03:14:44.064Z,1014.85
2023-06-05T03:15:44.050Z,1014.83
2023-06-05T03:16:43.988Z,1014.86
2023-06-05T03:17:44.017Z,1014.90
2023-06-05T03:18:43.906Z,1014.89
2023-06-05T03:19:43.857Z,1014.92
2023-06-05T03:20:43.819Z,1014.89
2023-06-05T03:21:43.778Z,1014.87
2023-06-05T03:22:43.741Z,1014.87
2023-06-05T03:23:43.818Z,1014.87
2023-06-05T03:24:43.660Z,1014.91
2023-06-05T03:25:43.621Z,1014.88
2023-06-05T03:26:43.594Z,1014.89
2023-06-05T03:27:43.540Z,1014.88
2023-06-05T03:28:43.513Z,1014.85
2023-06-05T03:29:43.471Z,1014.85
2023-06-05T03:30:43.427Z,1014.86
2023-06-05T03:31:43.381Z,1014.86
2023-06-05T03:32:43.406Z,1014.88
2023-06-05T03:33:43.316Z,1014.85
2023-06-05T03:34:43.261Z,1014.90
2023-06-05T03:35:43.251Z,1014.87
2023-06-05T03:36:43.181Z,1014.88
2023-06-05T03:37:43.143Z,1014.90
2023-06-05T03:38:43.115Z,1014.87
2023-06-05T03:39:43.062Z,1014.88
2023-06-05T03:40:43.123Z,1014.84
2023-06-05T03:41:43.020Z,1014.87
2023-06-05T03:42:42.964Z,1014.86
2023-06-05T03:43:42.906Z,1014.86
2023-06-05T03:44:42.860Z,1014.85
2023-06-05T03:45:42.842Z,1014.89
2023-06-05T03:46:42.848Z,1014.86
2023-06-05T03:47:42.778Z,1014.90
2023-06-05T03:48:42.701Z,1014.88
2023-06-05T03:49:42.669Z,1014.90
2023-06-05T03:50:42.638Z,1014.92
2023-06-05T03:51:42.590Z,1014.91
2023-06-05T03:52:42.565Z,1014.92
2023-06-05T03:53:42.512Z,1014.94
2023-06-05T03:54:42.476Z,1014.96
2023-06-05T03:55:42.583Z,1014.94
2023-06-05T03:56:42.390Z,1014.95
2023-06-05T03:57:42.414Z,1014.95
2023-06-05T03:58:42.319Z,1014.96
2023-06-05T03:59:42.280Z,1014.95
2023-06-05T04:00:42.231Z,1014.96
2023-06-05T04:01:42.260Z,1014.93
2023-06-05T04:02:42.175Z,1014.92
2023-06-05T04:03:42.246Z,1014.93
2023-06-05T04:04:42.076Z,1014.98
2023-06-05T04:05:42.039Z,1014.96
2023-06-05T04:06:42.025Z,1014.97
2023-06-05T04:07:41.977Z,1014.95
2023-06-05T04:08:41.928Z,1014.98
2023-06-05T04:09:41.874Z,1014.98
2023-06-05T04:10:41.841Z,1014.98
2023-06-05T04:11:41.793Z,1015.00
2023-06-05T04:12:41.773Z,1015.03
2023-06-05T04:13:53.929Z,1015.00
2023-06-05T04:14:41.681Z,1015.02
2023-06-05T04:15:41.643Z,1014.99
2023-06-05T04:16:41.725Z,1014.98
2023-06-05T04:17:41.608Z,1015.01
2023-06-05T04:18:41.518Z,1015.00
2023-06-05T04:19:41.507Z,1014.98
2023-06-05T04:20:41.450Z,1014.96
2023-06-05T04:21:41.425Z,1014.99
2023-06-05T04:22:41.360Z,1014.96
2023-06-05T04:23:41.376Z,1015.00
2023-06-05T04:24:41.282Z,1015.04
2023-06-05T04:25:41.264Z,1015.06
2023-06-05T04:26:41.232Z,1015.06
2023-06-05T04:27:41.172Z,1015.06
2023-06-05T04:28:41.126Z,1015.06
2023-06-05T04:29:41.082Z,1015.06
2023-06-05T04:30:41.096Z,1015.05
2023-06-05T04:31:41.006Z,1015.15
2023-06-05T04:32:40.997Z,1015.17
2023-06-05T04:33:40.958Z,1015.18
2023-06-05T04:34:40.894Z,1015.22
2023-06-05T04:35:40.893Z,1015.22
2023-06-05T04:36:40.807Z,1015.26
2023-06-05T04:37:40.779Z,1015.25
2023-06-05T04:38:40.745Z,1015.30
2023-06-05T04:39:40.711Z,1015.29
2023-06-05T04:40:40.726Z,1015.29
2023-06-05T04:41:40.615Z,1015.33
2023-06-05T04:42:40.585Z,1015.33
2023-06-05T04:43:40.536Z,1015.33
2023-06-05T04:44:40.517Z,1015.33
2023-06-05T04:45:40.460Z,1015.36
2023-06-05T04:46:40.510Z,1015.39
2023-06-05T04:47:40.378Z,1015.36
2023-06-05T04:48:40.353Z,1015.38
2023-06-05T04:49:40.328Z,1015.41
2023-06-05T04:50:40.329Z,1015.46
2023-06-05T04:51:40.247Z,1015.45
2023-06-05T04:52:40.219Z,1015.41
2023-06-05T04:53:40.174Z,1015.44
2023-06-05T04:54:40.143Z,1015.46
2023-06-05T04:55:40.107Z,1015.45
2023-06-05T04:56:40.055Z,1015.48
2023-06-05T04:57:40.016Z,1015.52
2023-06-05T04:58:39.975Z,1015.52
2023-06-05T04:59:39.943Z,1015.51
2023-06-05T05:00:39.949Z,1015.52
2023-06-05T05:01:39.899Z,1015.50
2023-06-05T05:02:39.905Z,1015.52
2023-06-05T05:03:39.826Z,1015.47
2023-06-05T05:04:39.795Z,1015.50
2023-06-05T05:05:39.719Z,1015.47
2023-06-05T05:06:39.707Z,1015.51
2023-06-05T05:07:39.656Z,1015.52
2023-06-05T05:08:39.616Z,1015.53
2023-06-05T05:09:39.604Z,1015.52
2023-06-05T05:10:39.558Z,1015.56
2023-06-05T05:11:39.529Z,1015.55
2023-06-05T05:12:39.508Z,1015.59
2023-06-05T05:13:39.532Z,1015.56
2023-06-05T05:14:39.416Z,1015.59
2023-06-05T05:15:39.367Z,1015.63
2023-06-05T05:16:39.410Z,1015.61
2023-06-05T05:17:39.334Z,1015.61
2023-06-05T05:18:39.267Z,1015.62
2023-06-05T05:19:39.232Z,1015.66
2023-06-05T05:20:39.206Z,1015.65
2023-06-05T05:21:39.167Z,1015.69
2023-06-05T05:22:39.151Z,1015.68
2023-06-05T05:23:39.117Z,1015.69
2023-06-05T05:24:39.075Z,1015.68
2023-06-05T05:25:39.032Z,1015.72
2023-06-05T05:26:39.000Z,1015.72
2023-06-05T05:27:38.993Z,1015.72
2023-06-05T05:28:38.937Z,1015.75
2023-06-05T05:29:38.886Z,1015.78
2023-06-05T05:30:38.866Z,1015.75
2023-06-05T05:31:38.896Z,1015.79
2023-06-05T05:32:38.835Z,1015.79
2023-06-05T05:33:38.770Z,1015.79
2023-06-05T05:34:38.720Z,1015.78
2023-06-05T05:35:38.702Z,1015.78
2023-06-05T05:36:38.668Z,1015.79
2023-06-05T05:37:38.621Z,1015.81
2023-06-05T05:38:38.594Z,1015.80
2023-06-05T05:39:38.582Z,1015.82
2023-06-05T05:40:38.544Z,1015.83
2023-06-05T05:41:38.500Z,1015.82
2023-06-05T05:42:38.458Z,1015.81
2023-06-05T05:43:38.422Z,1015.84
2023-06-05T05:44:38.400Z,1015.83
2023-06-05T05:45:38.378Z,1015.82
2023-06-05T05:46:38.339Z,1015.81
2023-06-05T05:47:38.330Z,1015.85
2023-06-05T05:48:38.266Z,1015.83
2023-06-05T05:49:38.222Z,1015.86
2023-06-05T05:50:38.199Z,1015.89
2023-06-05T05:51:38.159Z,1015.89
2023-06-05T05:52:38.135Z,1015.94
2023-06-05T05:53:38.121Z,1015.93
2023-06-05T05:54:38.069Z,1015.93
2023-06-05T05:55:38.034Z,1015.97
2023-06-05T05:56:38.011Z,1016.02
2023-06-05T05:57:37.962Z,1016.02
2023-06-05T05:58:37.952Z,1016.04
2023-06-05T05:59:37.906Z,1016.05
2023-06-05T06:00:37.868Z,1016.05
2023-06-05T06:01:37.844Z,1016.04
2023-06-05T06:02:50.510Z,1016.09
2023-06-05T06:03:37.921Z,1016.10
2023-06-05T06:04:37.821Z,1016.12
2023-06-05T06:05:37.714Z,1016.12
2023-06-05T06:06:37.681Z,1016.09
2023-06-05T06:07:49.994Z,1016.09
2023-06-05T06:08:46.054Z,1016.09
2023-06-05T06:09:37.651Z,1016.09
2023-06-05T06:10:46.216Z,1016.08
2023-06-05T06:11:46.601Z,1016.06
2023-06-05T06:12:37.536Z,1016.08
2023-06-05T06:13:46.628Z,1016.08
2023-06-05T06:14:37.435Z,1016.12
2023-06-05T06:15:37.413Z,1016.09
2023-06-05T06:16:37.345Z,1016.10
2023-06-05T06:17:37.353Z,1016.11
2023-06-05T06:18:37.274Z,1016.11
2023-06-05T06:19:37.249Z,1016.12
2023-06-05T06:20:37.249Z,1016.15
2023-06-05T06:21:37.195Z,1016.16
2023-06-05T06:22:37.158Z,1016.16
2023-06-05T06:23:37.223Z,1016.19
2023-06-05T06:24:37.078Z,1016.24
2023-06-05T06:25:37.041Z,1016.22
2023-06-05T06:26:37.027Z,1016.20
2023-06-05T06:27:36.994Z,1016.22
2023-06-05T06:28:36.988Z,1016.26
2023-06-05T06:29:36.915Z,1016.31
2023-06-05T06:30:36.891Z,1016.32
2023-06-05T06:31:36.915Z,1016.32
2023-06-05T06:32:36.854Z,1016.40
2023-06-05T06:33:36.782Z,1016.39
2023-06-05T06:34:36.773Z,1016.38
2023-06-05T06:35:36.732Z,1016.40
2023-06-05T06:36:36.693Z,1016.38
2023-06-05T06:37:36.787Z,1016.35
2023-06-05T06:38:36.632Z,1016.39
2023-06-05T06:39:36.596Z,1016.39
2023-06-05T06:40:36.587Z,1016.42
2023-06-05T06:41:36.534Z,1016.41
2023-06-05T06:42:36.496Z,1016.36
2023-06-05T06:43:36.471Z,1016.43
2023-06-05T06:44:36.440Z,1016.43
2023-06-05T06:45:36.460Z,1016.46
2023-06-05T06:46:36.375Z,1016.42
2023-06-05T06:47:36.364Z,1016.47
2023-06-05T06:48:36.446Z,1016.51
2023-06-05T06:49:36.294Z,1016.45
2023-06-05T06:50:36.294Z,1016.49
2023-06-05T06:51:36.232Z,1016.50
2023-06-05T06:52:36.179Z,1016.53
2023-06-05T06:53:36.151Z,1016.52
2023-06-05T06:54:36.282Z,1016.52
2023-06-05T06:55:36.097Z,1016.48
2023-06-05T06:56:36.070Z,1016.47
2023-06-05T06:57:36.056Z,1016.50
2023-06-05T06:58:35.995Z,1016.55
2023-06-05T06:59:37.255Z,1016.53
2023-06-05T07:00:36.002Z,1016.50
2023-06-05T07:01:35.923Z,1016.53
2023-06-05T07:02:35.932Z,1016.51
2023-06-05T07:03:35.915Z,1016.50
2023-06-05T07:04:43.691Z,1016.51
2023-06-05T07:05:45.722Z,1016.47
2023-06-05T07:06:45.259Z,1016.53
2023-06-05T07:07:43.287Z,1016.51
2023-06-05T07:08:44.359Z,1016.48
2023-06-05T07:09:35.673Z,1016.47
2023-06-05T07:10:42.730Z,1016.49
2023-06-05T07:11:35.589Z,1016.44
2023-06-05T07:12:35.551Z,1016.47
2023-06-05T07:13:35.525Z,1016.50
2023-06-05T07:14:35.517Z,1016.51
2023-06-05T07:15:43.442Z,1016.49
2023-06-05T07:16:35.497Z,1016.45
2023-06-05T07:17:35.411Z,1016.44
2023-06-05T07:18:35.371Z,1016.40
2023-06-05T07:19:35.346Z,1016.41
2023-06-05T07:20:35.313Z,1016.47
2023-06-05T07:21:35.280Z,1016.40
2023-06-05T07:22:35.262Z,1016.41
2023-06-05T07:23:35.246Z,1016.40
2023-06-05T07:24:35.184Z,1016.41
2023-06-05T07:25:35.164Z,1016.39
2023-06-05T07:26:35.122Z,1016.42
2023-06-05T07:27:35.111Z,1016.30
2023-06-05T07:28:35.072Z,1016.29
2023-06-05T07:29:35.033Z,1016.29
2023-06-05T07:30:35.013Z,1016.34
2023-06-05T07:31:35.036Z,1016.30
2023-06-05T07:32:34.954Z,1016.28
2023-06-05T07:33:34.974Z,1016.28
2023-06-05T07:34:34.879Z,1016.27
2023-06-05T07:35:35.762Z,1016.29
2023-06-05T07:36:34.818Z,1016.29
2023-06-05T07:37:34.806Z,1016.26
2023-06-05T07:38:34.761Z,1016.29
2023-06-05T07:39:34.736Z,1016.26
2023-06-05T07:40:34.688Z,1016.23
2023-06-05T07:41:34.664Z,1016.26
2023-06-05T07:42:34.638Z,1016.29
2023-06-05T07:43:34.615Z,1016.28
2023-06-05T07:44:34.615Z,1016.21
2023-06-05T07:45:34.548Z,1016.22
2023-06-05T07:47:02.146Z,1016.25
2023-06-05T07:47:35.390Z,1016.24
2023-06-05T07:49:34.444Z,1016.23
2023-06-05T07:50:34.414Z,1016.20
2023-06-05T07:51:34.376Z,1016.21
2023-06-05T07:52:34.354Z,1016.19
2023-06-05T07:53:34.306Z,1016.25
2023-06-05T07:54:34.700Z,1016.20
2023-06-05T07:55:34.287Z,1016.18
2023-06-05T07:56:34.250Z,1016.17
2023-06-05T07:57:34.189Z,1016.20
2023-06-05T07:58:34.240Z,1016.23
2023-06-05T08:01:43.162Z,1016.22
2023-06-05T08:02:43.183Z,1016.18
2023-06-05T08:03:43.301Z,1016.21
2023-06-05T08:04:43.065Z,1016.21
2023-06-05T08:05:43.019Z,1016.20
2023-06-05T08:06:46.232Z,1016.16
2023-06-05T08:07:43.012Z,1016.18
2023-06-05T08:08:42.947Z,1016.15
2023-06-05T08:09:42.901Z,1016.13
2023-06-05T08:10:42.862Z,1016.08
2023-06-05T08:11:43.004Z,1016.10
2023-06-05T08:12:42.806Z,1016.09
2023-06-05T08:13:42.775Z,1016.04
2023-06-05T08:14:42.761Z,1016.08
2023-06-05T08:15:42.800Z,1016.09
2023-06-05T08:16:42.732Z,1016.06
2023-06-05T08:17:42.699Z,1016.06
2023-06-05T08:18:42.633Z,1016.09
2023-06-05T08:19:42.591Z,1016.06
2023-06-05T08:20:42.589Z,1016.04
2023-06-05T08:21:42.548Z,1016.06
2023-06-05T08:22:42.503Z,1016.05
2023-06-05T08:23:42.509Z,1015.99
2023-06-05T08:24:42.460Z,1016.00
2023-06-05T08:25:42.411Z,1015.94
2023-06-05T08:26:42.416Z,1015.97
2023-06-05T08:27:42.367Z,1015.97
2023-06-05T08:28:42.335Z,1015.93
2023-06-05T08:29:42.305Z,1015.95
2023-06-05T08:30:42.266Z,1015.92
2023-06-05T08:31:42.285Z,1015.89
2023-06-05T08:32:42.229Z,1015.88
2023-06-05T08:33:42.202Z,1015.92
2023-06-05T08:34:42.164Z,1015.85
2023-06-05T08:35:42.141Z,1015.86
2023-06-05T08:36:42.096Z,1015.84
2023-06-05T08:37:42.077Z,1015.87
2023-06-05T08:38:42.875Z,1015.91
2023-06-05T08:39:41.993Z,1015.87
2023-06-05T08:40:41.975Z,1015.83
2023-06-05T08:41:41.940Z,1015.81
2023-06-05T08:42:41.937Z,1015.84
2023-06-05T08:43:41.907Z,1015.84
2023-06-05T08:44:50.233Z,1015.88
2023-06-05T08:45:41.844Z,1015.83
2023-06-05T08:46:41.804Z,1015.77
2023-06-05T08:47:41.803Z,1015.76
2023-06-05T08:48:41.743Z,1015.74
2023-06-05T08:49:41.702Z,1015.71
2023-06-05T08:50:41.686Z,1015.72
2023-06-05T08:51:41.641Z,1015.76
2023-06-05T08:52:41.613Z,1015.79
2023-06-05T08:53:41.593Z,1015.73
2023-06-05T08:54:41.578Z,1015.73
2023-06-05T08:55:41.541Z,1015.71
2023-06-05T08:56:41.537Z,1015.75
2023-06-05T08:57:41.482Z,1015.78
2023-06-05T08:58:41.448Z,1015.72
2023-06-05T08:59:41.409Z,1015.73
2023-06-05T09:00:41.401Z,1015.75
2023-06-05T09:01:41.412Z,1015.73
2023-06-05T09:02:41.400Z,1015.70
2023-06-05T09:03:41.335Z,1015.68
2023-06-05T09:04:41.275Z,1015.73
2023-06-05T09:05:41.239Z,1015.70
2023-06-05T09:06:41.236Z,1015.67
2023-06-05T09:07:41.182Z,1015.67
2023-06-05T09:08:41.153Z,1015.66
2023-06-05T09:09:41.119Z,1015.66
2023-06-05T09:10:41.094Z,1015.64
2023-06-05T09:11:41.078Z,1015.61
2023-06-05T09:12:41.062Z,1015.59
2023-06-05T09:13:41.009Z,1015.58
2023-06-05T09:14:40.986Z,1015.59
2023-06-05T09:15:40.997Z,1015.56
2023-06-05T09:16:40.930Z,1015.56
2023-06-05T09:17:40.929Z,1015.55
2023-06-05T09:18:40.879Z,1015.54
2023-06-05T09:19:40.832Z,1015.48
2023-06-05T09:20:40.825Z,1015.48
2023-06-05T09:21:43.453Z,1015.51
2023-06-05T09:22:40.755Z,1015.53
2023-06-05T09:23:40.733Z,1015.51
2023-06-05T09:24:40.723Z,1015.48
2023-06-05T09:25:40.666Z,1015.43
2023-06-05T09:26:40.638Z,1015.44
2023-06-05T09:27:40.616Z,1015.42
2023-06-05T09:28:40.578Z,1015.45
2023-06-05T09:29:40.559Z,1015.41
2023-06-05T09:30:40.532Z,1015.44
2023-06-05T09:31:40.636Z,1015.45
2023-06-05T09:32:40.509Z,1015.42
2023-06-05T09:33:40.434Z,1015.43
2023-06-05T09:34:40.425Z,1015.45
2023-06-05T09:35:40.382Z,1015.39
2023-06-05T09:36:40.369Z,1015.39
2023-06-05T09:37:40.338Z,1015.34
2023-06-05T09:38:40.291Z,1015.35
2023-06-05T09:39:40.261Z,1015.38
2023-06-05T09:40:40.247Z,1015.37
2023-06-05T09:41:40.200Z,1015.33
2023-06-05T09:42:40.184Z,1015.36
2023-06-05T09:43:40.142Z,1015.38
2023-06-05T09:44:40.124Z,1015.33
2023-06-05T09:45:40.090Z,1015.41
2023-06-05T09:46:40.097Z,1015.35
2023-06-05T09:47:53.271Z,1015.38
2023-06-05T09:48:40.028Z,1015.35
2023-06-05T09:49:40.131Z,1015.32
2023-06-05T09:50:40.058Z,1015.30
2023-06-05T09:51:39.915Z,1015.39
2023-06-05T09:52:39.889Z,1015.43
2023-06-05T09:53:39.859Z,1015.39
2023-06-05T09:54:39.860Z,1015.33
2023-06-05T09:55:39.802Z,1015.34
2023-06-05T09:56:39.774Z,1015.35
2023-06-05T09:57:39.736Z,1015.33
2023-06-05T09:58:39.716Z,1015.32
2023-06-05T09:59:39.683Z,1015.34
2023-06-05T10:00:39.702Z,1015.39
2023-06-05T10:01:39.633Z,1015.33
2023-06-05T10:02:39.603Z,1015.30
2023-06-05T10:03:39.565Z,1015.30
2023-06-05T10:04:39.827Z,1015.30
2023-06-05T10:05:39.535Z,1015.24
2023-06-05T10:06:39.501Z,1015.19
2023-06-05T10:07:39.457Z,1015.21
2023-06-05T10:08:39.432Z,1015.23
2023-06-05T10:09:39.399Z,1015.22
2023-06-05T10:10:39.384Z,1015.22
2023-06-05T10:11:39.351Z,1015.19
2023-06-05T10:12:39.324Z,1015.20
2023-06-05T10:13:39.293Z,1015.19
2023-06-05T10:14:39.264Z,1015.21
2023-06-05T10:15:39.239Z,1015.22
2023-06-05T10:16:39.246Z,1015.21
2023-06-05T10:17:39.223Z,1015.20
2023-06-05T10:18:39.144Z,1015.17
2023-06-05T10:19:39.122Z,1015.18
2023-06-05T10:20:39.124Z,1015.23
2023-06-05T10:21:39.061Z,1015.20
2023-06-05T10:22:39.048Z,1015.18
2023-06-05T10:23:39.030Z,1015.20
2023-06-05T10:24:38.997Z,1015.21
2023-06-05T10:25:38.950Z,1015.17
2023-06-05T10:26:38.926Z,1015.17
2023-06-05T10:27:38.935Z,1015.20
2023-06-05T10:28:38.866Z,1015.21
2023-06-05T10:29:38.851Z,1015.20
2023-06-05T10:30:38.851Z,1015.15
2023-06-05T10:31:38.810Z,1015.19
2023-06-05T10:32:38.799Z,1015.22
2023-06-05T10:33:49.077Z,1015.21
2023-06-05T10:34:49.514Z,1015.17
2023-06-05T10:37:28.886Z,1015.20
2023-06-05T10:38:35.426Z,1015.18
2023-06-05T10:39:33.534Z,1015.13
2023-06-05T10:40:33.659Z,1015.19
2023-06-05T10:41:32.700Z,1015.17
2023-06-05T10:42:36.675Z,1015.16
2023-06-05T10:43:36.207Z,1015.06
2023-06-05T10:44:25.694Z,1015.12
2023-06-05T10:45:25.031Z,1015.11
2023-06-05T10:46:25.044Z,1015.29
2023-06-05T10:47:25.017Z,1015.30
2023-06-05T10:48:24.938Z,1015.20
2023-06-05T10:49:24.987Z,1015.13
2023-06-05T10:50:24.883Z,1015.16
2023-06-05T10:51:24.858Z,1015.19
2023-06-05T10:52:24.883Z,1015.16
2023-06-05T10:53:24.805Z,1015.21
2023-06-05T10:54:24.896Z,1015.14
2023-06-05T10:55:24.774Z,1015.09
2023-06-05T10:56:24.749Z,1015.15
2023-06-05T10:57:24.699Z,1015.12
2023-06-05T10:58:24.697Z,1015.11
2023-06-05T10:59:24.629Z,1015.10
2023-06-05T11:00:24.602Z,1015.07
2023-06-05T11:01:24.613Z,1015.13
2023-06-05T11:02:24.626Z,1015.13
2023-06-05T11:03:24.519Z,1015.12
2023-06-05T11:04:24.539Z,1015.06
2023-06-05T11:05:24.454Z,1014.99
2023-06-05T11:06:24.430Z,1015.06
2023-06-05T11:07:24.406Z,1015.06
2023-06-05T11:08:24.397Z,1015.12
2023-06-05T11:09:24.342Z,1015.14
2023-06-05T11:10:24.337Z,1015.09
2023-06-05T11:11:24.296Z,1015.01
2023-06-05T11:12:24.267Z,1014.99
2023-06-05T11:13:24.238Z,1015.05
2023-06-05T11:14:24.205Z,1015.06
2023-06-05T11:15:24.178Z,1015.10
2023-06-05T11:16:24.227Z,1015.14
2023-06-05T11:17:24.697Z,1015.02
2023-06-05T11:18:24.111Z,1014.94
2023-06-05T11:19:24.065Z,1014.95
2023-06-05T11:20:24.063Z,1014.88
2023-06-05T11:21:23.998Z,1014.84
2023-06-05T11:22:23.973Z,1014.94
2023-06-05T11:23:24.005Z,1014.91
2023-06-05T11:24:23.921Z,1014.87
2023-06-05T11:25:23.890Z,1014.95
2023-06-05T11:26:23.879Z,1014.93
2023-06-05T11:27:23.841Z,1014.87
2023-06-05T11:28:23.802Z,1014.87
2023-06-05T11:29:23.804Z,1014.89
2023-06-05T11:30:39.287Z,1014.88
2023-06-05T11:31:23.754Z,1014.91
2023-06-05T11:32:23.756Z,1014.93
2023-06-05T11:33:23.738Z,1014.93
2023-06-05T11:34:23.669Z,1014.81
2023-06-05T11:35:24.199Z,1014.82
2023-06-05T11:36:23.590Z,1014.81
2023-06-05T11:37:23.549Z,1014.83
2023-06-05T11:38:25.182Z,1014.85
2023-06-05T11:39:23.483Z,1014.78
2023-06-05T11:40:23.468Z,1014.76
2023-06-05T11:41:23.460Z,1014.80
2023-06-05T11:42:23.416Z,1014.78
2023-06-05T11:43:23.409Z,1014.76
2023-06-05T11:44:23.350Z,1014.75
2023-06-05T11:45:23.317Z,1014.76
2023-06-05T11:46:23.357Z,1014.78
2023-06-05T11:47:23.328Z,1014.72
2023-06-05T11:48:23.253Z,1014.67
2023-06-05T11:49:23.205Z,1014.72
2023-06-05T11:50:23.174Z,1014.73
2023-06-05T11:51:23.148Z,1014.70
2023-06-05T11:52:23.214Z,1014.72
2023-06-05T11:53:23.104Z,1014.71
2023-06-05T11:54:23.080Z,1014.68
2023-06-05T11:55:23.042Z,1014.71
2023-06-05T11:56:23.019Z,1014.60
2023-06-05T11:57:22.981Z,1014.60
2023-06-05T11:58:22.975Z,1014.61
2023-06-05T11:59:22.916Z,1014.61
2023-06-05T12:00:22.908Z,1014.65
2023-06-05T12:01:23.123Z,1014.61
2023-06-05T12:02:22.905Z,1014.62
2023-06-05T12:03:22.990Z,1014.59
2023-06-05T12:04:22.836Z,1014.64
2023-06-05T12:05:22.749Z,1014.57
2023-06-05T12:06:22.747Z,1014.58
2023-06-05T12:07:22.694Z,1014.51
2023-06-05T12:08:22.685Z,1014.56
2023-06-05T12:09:22.690Z,1014.57
2023-06-05T12:10:22.624Z,1014.57